sensor_id;sensor_type;location;lat;lon;timestamp;temperature;humidity
70184;DHT22;57554;51.546;6.776;2023-07-13T00:02:23;17.60;55.70
70184;DHT22;57554;51.546;6.776;2023-07-13T00:04:48;17.60;55.80
70184;DHT22;57554;51.546;6.776;2023-07-13T00:07:14;17.50;56.00
70184;DHT22;57554;51.546;6.776;2023-07-13T00:09:40;17.40;56.10
70184;DHT22;57554;51.546;6.776;2023-07-13T00:12:33;17.40;56.20
70184;DHT22;57554;51.546;6.776;2023-07-13T00:15:00;17.40;56.20
70184;DHT22;57554;51.546;6.776;2023-07-13T00:17:28;17.30;56.20
70184;DHT22;57554;51.546;6.776;2023-07-13T00:19:56;17.30;56.30
70184;DHT22;57554;51.546;6.776;2023-07-13T00:22:22;17.30;56.30
70184;DHT22;57554;51.546;6.776;2023-07-13T00:24:51;17.20;56.40
70184;DHT22;57554;51.546;6.776;2023-07-13T00:27:17;17.20;56.40
70184;DHT22;57554;51.546;6.776;2023-07-13T00:29:43;17.20;56.50
70184;DHT22;57554;51.546;6.776;2023-07-13T00:32:09;17.20;56.70
70184;DHT22;57554;51.546;6.776;2023-07-13T00:34:35;17.10;56.90
70184;DHT22;57554;51.546;6.776;2023-07-13T00:37:00;17.10;57.00
70184;DHT22;57554;51.546;6.776;2023-07-13T00:39:27;17.10;57.00
70184;DHT22;57554;51.546;6.776;2023-07-13T00:41:52;17.10;57.20
70184;DHT22;57554;51.546;6.776;2023-07-13T00:44:19;17.10;57.20
70184;DHT22;57554;51.546;6.776;2023-07-13T00:46:45;17.10;57.30
70184;DHT22;57554;51.546;6.776;2023-07-13T00:49:16;17.10;57.30
70184;DHT22;57554;51.546;6.776;2023-07-13T00:51:54;17.10;57.40
70184;DHT22;57554;51.546;6.776;2023-07-13T00:54:29;17.10;57.60
70184;DHT22;57554;51.546;6.776;2023-07-13T00:57:00;17.00;57.80
70184;DHT22;57554;51.546;6.776;2023-07-13T00:59:27;17.00;57.80
70184;DHT22;57554;51.546;6.776;2023-07-13T01:01:53;17.00;57.90
70184;DHT22;57554;51.546;6.776;2023-07-13T01:04:19;16.90;58.00
70184;DHT22;57554;51.546;6.776;2023-07-13T01:06:45;16.90;58.00
70184;DHT22;57554;51.546;6.776;2023-07-13T01:09:13;16.90;58.10
70184;DHT22;57554;51.546;6.776;2023-07-13T01:11:39;16.90;58.20
70184;DHT22;57554;51.546;6.776;2023-07-13T01:14:05;16.80;58.30
70184;DHT22;57554;51.546;6.776;2023-07-13T01:16:32;16.80;58.30
70184;DHT22;57554;51.546;6.776;2023-07-13T01:18:59;16.80;58.50
70184;DHT22;57554;51.546;6.776;2023-07-13T01:21:27;16.80;58.50
70184;DHT22;57554;51.546;6.776;2023-07-13T01:23:54;16.80;58.60
70184;DHT22;57554;51.546;6.776;2023-07-13T01:26:19;16.80;58.60
70184;DHT22;57554;51.546;6.776;2023-07-13T01:28:45;16.70;58.70
70184;DHT22;57554;51.546;6.776;2023-07-13T01:31:11;16.70;58.70
70184;DHT22;57554;51.546;6.776;2023-07-13T01:33:38;16.70;58.80
70184;DHT22;57554;51.546;6.776;2023-07-13T01:36:09;16.70;58.90
70184;DHT22;57554;51.546;6.776;2023-07-13T01:38:35;16.70;58.90
70184;DHT22;57554;51.546;6.776;2023-07-13T01:41:02;16.70;58.90
70184;DHT22;57554;51.546;6.776;2023-07-13T01:43:28;16.70;59.00
70184;DHT22;57554;51.546;6.776;2023-07-13T01:45:53;16.70;59.10
70184;DHT22;57554;51.546;6.776;2023-07-13T01:48:19;16.60;59.20
70184;DHT22;57554;51.546;6.776;2023-07-13T01:50:45;16.60;59.30
70184;DHT22;57554;51.546;6.776;2023-07-13T01:53:11;16.60;59.30
70184;DHT22;57554;51.546;6.776;2023-07-13T01:55:37;16.60;59.40
70184;DHT22;57554;51.546;6.776;2023-07-13T01:58:04;16.60;59.50
70184;DHT22;57554;51.546;6.776;2023-07-13T02:00:30;16.60;59.60
70184;DHT22;57554;51.546;6.776;2023-07-13T02:02:55;16.50;59.70
70184;DHT22;57554;51.546;6.776;2023-07-13T02:05:21;16.50;59.70
70184;DHT22;57554;51.546;6.776;2023-07-13T02:07:47;16.50;59.90
70184;DHT22;57554;51.546;6.776;2023-07-13T02:10:12;16.50;60.10
70184;DHT22;57554;51.546;6.776;2023-07-13T02:12:38;16.40;60.30
70184;DHT22;57554;51.546;6.776;2023-07-13T02:15:05;16.40;60.50
70184;DHT22;57554;51.546;6.776;2023-07-13T02:17:31;16.40;60.70
70184;DHT22;57554;51.546;6.776;2023-07-13T02:19:57;16.30;60.80
70184;DHT22;57554;51.546;6.776;2023-07-13T02:22:23;16.30;60.90
70184;DHT22;57554;51.546;6.776;2023-07-13T02:24:49;16.30;61.00
70184;DHT22;57554;51.546;6.776;2023-07-13T02:27:14;16.30;61.10
70184;DHT22;57554;51.546;6.776;2023-07-13T02:29:40;16.30;61.10
70184;DHT22;57554;51.546;6.776;2023-07-13T02:32:06;16.30;61.20
70184;DHT22;57554;51.546;6.776;2023-07-13T02:34:31;16.30;61.30
70184;DHT22;57554;51.546;6.776;2023-07-13T02:36:57;16.30;61.40
70184;DHT22;57554;51.546;6.776;2023-07-13T02:39:23;16.20;61.50
70184;DHT22;57554;51.546;6.776;2023-07-13T02:41:48;16.20;61.70
70184;DHT22;57554;51.546;6.776;2023-07-13T02:44:14;16.20;61.80
70184;DHT22;57554;51.546;6.776;2023-07-13T02:46:40;16.20;61.90
70184;DHT22;57554;51.546;6.776;2023-07-13T02:49:06;16.20;62.00
70184;DHT22;57554;51.546;6.776;2023-07-13T02:51:32;16.10;62.20
70184;DHT22;57554;51.546;6.776;2023-07-13T02:54:00;16.10;62.20
70184;DHT22;57554;51.546;6.776;2023-07-13T02:56:28;16.10;62.30
70184;DHT22;57554;51.546;6.776;2023-07-13T02:58:54;16.10;62.40
70184;DHT22;57554;51.546;6.776;2023-07-13T03:01:20;16.10;62.40
70184;DHT22;57554;51.546;6.776;2023-07-13T03:03:47;16.10;62.40
70184;DHT22;57554;51.546;6.776;2023-07-13T03:06:14;16.10;62.50
70184;DHT22;57554;51.546;6.776;2023-07-13T03:08:40;16.10;62.60
70184;DHT22;57554;51.546;6.776;2023-07-13T03:11:08;16.10;62.70
70184;DHT22;57554;51.546;6.776;2023-07-13T03:13:36;16.10;62.80
70184;DHT22;57554;51.546;6.776;2023-07-13T03:16:02;16.00;62.90
70184;DHT22;57554;51.546;6.776;2023-07-13T03:18:28;16.00;63.00
70184;DHT22;57554;51.546;6.776;2023-07-13T03:20:54;16.00;63.10
70184;DHT22;57554;51.546;6.776;2023-07-13T03:23:21;16.00;63.20
70184;DHT22;57554;51.546;6.776;2023-07-13T03:25:47;16.00;63.30
70184;DHT22;57554;51.546;6.776;2023-07-13T03:28:13;16.00;63.40
70184;DHT22;57554;51.546;6.776;2023-07-13T03:30:39;16.00;63.40
70184;DHT22;57554;51.546;6.776;2023-07-13T03:33:05;16.00;63.40
70184;DHT22;57554;51.546;6.776;2023-07-13T03:35:30;16.00;63.50
70184;DHT22;57554;51.546;6.776;2023-07-13T03:37:58;16.00;63.60
70184;DHT22;57554;51.546;6.776;2023-07-13T03:40:24;16.10;63.70
70184;DHT22;57554;51.546;6.776;2023-07-13T03:42:51;16.10;63.70
70184;DHT22;57554;51.546;6.776;2023-07-13T03:45:17;16.10;63.70
70184;DHT22;57554;51.546;6.776;2023-07-13T03:47:43;16.10;63.80
70184;DHT22;57554;51.546;6.776;2023-07-13T03:50:09;16.10;63.80
70184;DHT22;57554;51.546;6.776;2023-07-13T03:52:34;16.10;63.80
70184;DHT22;57554;51.546;6.776;2023-07-13T03:55:00;16.10;63.90
70184;DHT22;57554;51.546;6.776;2023-07-13T03:57:25;16.10;63.90
70184;DHT22;57554;51.546;6.776;2023-07-13T03:59:51;16.10;63.90
70184;DHT22;57554;51.546;6.776;2023-07-13T04:02:17;16.10;64.00
70184;DHT22;57554;51.546;6.776;2023-07-13T04:04:43;16.10;64.00
70184;DHT22;57554;51.546;6.776;2023-07-13T04:07:09;16.00;64.10
70184;DHT22;57554;51.546;6.776;2023-07-13T04:09:35;16.00;64.20
70184;DHT22;57554;51.546;6.776;2023-07-13T04:12:01;16.00;64.30
70184;DHT22;57554;51.546;6.776;2023-07-13T04:14:27;16.00;64.40
70184;DHT22;57554;51.546;6.776;2023-07-13T04:16:53;16.00;64.60
70184;DHT22;57554;51.546;6.776;2023-07-13T04:19:19;16.00;64.70
70184;DHT22;57554;51.546;6.776;2023-07-13T04:21:45;16.00;64.70
70184;DHT22;57554;51.546;6.776;2023-07-13T04:24:11;16.00;64.80
70184;DHT22;57554;51.546;6.776;2023-07-13T04:26:36;16.00;64.90
70184;DHT22;57554;51.546;6.776;2023-07-13T04:29:04;16.00;65.00
70184;DHT22;57554;51.546;6.776;2023-07-13T04:31:30;16.00;65.10
70184;DHT22;57554;51.546;6.776;2023-07-13T04:33:56;16.00;65.20
70184;DHT22;57554;51.546;6.776;2023-07-13T04:36:22;16.00;65.30
70184;DHT22;57554;51.546;6.776;2023-07-13T04:38:48;16.00;65.30
70184;DHT22;57554;51.546;6.776;2023-07-13T04:41:15;16.00;65.40
70184;DHT22;57554;51.546;6.776;2023-07-13T04:43:41;16.00;65.50
70184;DHT22;57554;51.546;6.776;2023-07-13T04:46:12;16.00;65.60
70184;DHT22;57554;51.546;6.776;2023-07-13T04:48:38;16.00;65.70
70184;DHT22;57554;51.546;6.776;2023-07-13T04:51:04;16.00;65.70
70184;DHT22;57554;51.546;6.776;2023-07-13T04:53:30;16.00;65.80
70184;DHT22;57554;51.546;6.776;2023-07-13T04:55:56;16.00;65.90
70184;DHT22;57554;51.546;6.776;2023-07-13T04:58:23;16.00;66.00
70184;DHT22;57554;51.546;6.776;2023-07-13T05:00:49;16.10;66.00
70184;DHT22;57554;51.546;6.776;2023-07-13T05:03:14;16.10;66.00
70184;DHT22;57554;51.546;6.776;2023-07-13T05:05:40;16.10;66.00
70184;DHT22;57554;51.546;6.776;2023-07-13T05:08:06;16.10;66.10
70184;DHT22;57554;51.546;6.776;2023-07-13T05:10:32;16.10;66.10
70184;DHT22;57554;51.546;6.776;2023-07-13T05:12:58;16.10;66.10
70184;DHT22;57554;51.546;6.776;2023-07-13T05:15:24;16.20;66.20
70184;DHT22;57554;51.546;6.776;2023-07-13T05:17:50;16.30;66.20
70184;DHT22;57554;51.546;6.776;2023-07-13T05:20:17;16.40;66.10
70184;DHT22;57554;51.546;6.776;2023-07-13T05:22:44;16.50;66.00
70184;DHT22;57554;51.546;6.776;2023-07-13T05:25:12;16.50;65.90
70184;DHT22;57554;51.546;6.776;2023-07-13T05:27:38;16.50;65.90
70184;DHT22;57554;51.546;6.776;2023-07-13T05:30:04;16.50;66.00
70184;DHT22;57554;51.546;6.776;2023-07-13T05:32:30;16.60;66.10
70184;DHT22;57554;51.546;6.776;2023-07-13T05:34:56;16.60;66.10
70184;DHT22;57554;51.546;6.776;2023-07-13T05:37:22;16.70;66.10
70184;DHT22;57554;51.546;6.776;2023-07-13T05:39:47;16.70;66.20
70184;DHT22;57554;51.546;6.776;2023-07-13T05:42:13;16.80;66.20
70184;DHT22;57554;51.546;6.776;2023-07-13T05:44:38;16.80;66.20
70184;DHT22;57554;51.546;6.776;2023-07-13T05:47:04;16.90;66.10
70184;DHT22;57554;51.546;6.776;2023-07-13T05:49:30;16.90;66.00
70184;DHT22;57554;51.546;6.776;2023-07-13T05:51:56;17.00;66.00
70184;DHT22;57554;51.546;6.776;2023-07-13T05:54:22;17.00;66.10
70184;DHT22;57554;51.546;6.776;2023-07-13T05:56:47;17.10;66.10
70184;DHT22;57554;51.546;6.776;2023-07-13T05:59:13;17.20;66.10
70184;DHT22;57554;51.546;6.776;2023-07-13T06:01:38;17.20;66.00
70184;DHT22;57554;51.546;6.776;2023-07-13T06:04:04;17.30;65.90
70184;DHT22;57554;51.546;6.776;2023-07-13T06:06:30;17.40;65.80
70184;DHT22;57554;51.546;6.776;2023-07-13T06:08:56;17.40;65.70
70184;DHT22;57554;51.546;6.776;2023-07-13T06:11:23;17.50;65.60
70184;DHT22;57554;51.546;6.776;2023-07-13T06:13:50;17.40;65.50
70184;DHT22;57554;51.546;6.776;2023-07-13T06:16:16;17.50;65.70
70184;DHT22;57554;51.546;6.776;2023-07-13T06:18:42;17.50;65.90
70184;DHT22;57554;51.546;6.776;2023-07-13T06:21:20;17.50;65.70
70184;DHT22;57554;51.546;6.776;2023-07-13T06:23:47;17.50;65.60
70184;DHT22;57554;51.546;6.776;2023-07-13T06:26:15;17.50;65.70
70184;DHT22;57554;51.546;6.776;2023-07-13T06:28:41;17.60;65.80
70184;DHT22;57554;51.546;6.776;2023-07-13T06:31:08;17.60;65.90
70184;DHT22;57554;51.546;6.776;2023-07-13T06:33:34;17.70;65.80
70184;DHT22;57554;51.546;6.776;2023-07-13T06:36:01;17.80;65.60
70184;DHT22;57554;51.546;6.776;2023-07-13T06:38:27;17.90;65.40
70184;DHT22;57554;51.546;6.776;2023-07-13T06:40:52;17.90;65.20
70184;DHT22;57554;51.546;6.776;2023-07-13T06:43:18;18.00;65.20
70184;DHT22;57554;51.546;6.776;2023-07-13T06:45:46;18.00;65.00
70184;DHT22;57554;51.546;6.776;2023-07-13T06:48:15;18.00;65.10
70184;DHT22;57554;51.546;6.776;2023-07-13T06:50:42;18.10;64.90
70184;DHT22;57554;51.546;6.776;2023-07-13T06:53:08;18.10;64.80
70184;DHT22;57554;51.546;6.776;2023-07-13T06:55:33;18.30;64.80
70184;DHT22;57554;51.546;6.776;2023-07-13T06:57:59;18.40;64.80
70184;DHT22;57554;51.546;6.776;2023-07-13T07:00:25;18.50;64.70
70184;DHT22;57554;51.546;6.776;2023-07-13T07:02:50;18.70;64.40
70184;DHT22;57554;51.546;6.776;2023-07-13T07:05:16;18.80;63.70
70184;DHT22;57554;51.546;6.776;2023-07-13T07:07:42;18.90;63.30
70184;DHT22;57554;51.546;6.776;2023-07-13T07:10:08;18.80;63.40
70184;DHT22;57554;51.546;6.776;2023-07-13T07:12:33;18.80;63.60
70184;DHT22;57554;51.546;6.776;2023-07-13T07:14:59;18.90;63.50
70184;DHT22;57554;51.546;6.776;2023-07-13T07:17:25;18.90;63.50
70184;DHT22;57554;51.546;6.776;2023-07-13T07:19:52;19.00;63.20
70184;DHT22;57554;51.546;6.776;2023-07-13T07:22:20;19.00;62.80
70184;DHT22;57554;51.546;6.776;2023-07-13T07:24:45;19.00;62.80
70184;DHT22;57554;51.546;6.776;2023-07-13T07:27:11;19.10;62.60
70184;DHT22;57554;51.546;6.776;2023-07-13T07:29:36;19.10;62.70
70184;DHT22;57554;51.546;6.776;2023-07-13T07:32:02;19.10;62.80
70184;DHT22;57554;51.546;6.776;2023-07-13T07:34:28;19.20;62.80
70184;DHT22;57554;51.546;6.776;2023-07-13T07:36:54;19.30;62.40
70184;DHT22;57554;51.546;6.776;2023-07-13T07:39:19;19.40;62.20
70184;DHT22;57554;51.546;6.776;2023-07-13T07:41:45;19.60;62.40
70184;DHT22;57554;51.546;6.776;2023-07-13T07:44:10;19.70;61.20
70184;DHT22;57554;51.546;6.776;2023-07-13T07:46:36;19.70;60.80
70184;DHT22;57554;51.546;6.776;2023-07-13T07:49:02;19.60;61.00
70184;DHT22;57554;51.546;6.776;2023-07-13T07:51:27;19.60;61.10
70184;DHT22;57554;51.546;6.776;2023-07-13T07:53:53;19.60;60.90
70184;DHT22;57554;51.546;6.776;2023-07-13T07:56:19;19.70;60.60
70184;DHT22;57554;51.546;6.776;2023-07-13T07:58:44;19.90;60.50
70184;DHT22;57554;51.546;6.776;2023-07-13T08:01:10;20.10;59.80
70184;DHT22;57554;51.546;6.776;2023-07-13T08:03:36;20.30;59.20
70184;DHT22;57554;51.546;6.776;2023-07-13T08:06:01;20.40;58.80
70184;DHT22;57554;51.546;6.776;2023-07-13T08:08:27;20.40;58.30
70184;DHT22;57554;51.546;6.776;2023-07-13T08:10:53;20.30;58.20
70184;DHT22;57554;51.546;6.776;2023-07-13T08:13:19;20.20;58.40
70184;DHT22;57554;51.546;6.776;2023-07-13T08:15:45;20.20;58.60
70184;DHT22;57554;51.546;6.776;2023-07-13T08:18:11;20.20;58.70
70184;DHT22;57554;51.546;6.776;2023-07-13T08:20:40;20.20;58.90
70184;DHT22;57554;51.546;6.776;2023-07-13T08:23:07;20.40;59.10
70184;DHT22;57554;51.546;6.776;2023-07-13T08:25:34;20.50;58.20
70184;DHT22;57554;51.546;6.776;2023-07-13T08:28:00;20.60;57.70
70184;DHT22;57554;51.546;6.776;2023-07-13T08:30:25;20.70;57.40
70184;DHT22;57554;51.546;6.776;2023-07-13T08:32:51;20.60;57.00
70184;DHT22;57554;51.546;6.776;2023-07-13T08:35:18;20.60;57.50
70184;DHT22;57554;51.546;6.776;2023-07-13T08:37:43;20.60;57.40
70184;DHT22;57554;51.546;6.776;2023-07-13T08:40:10;20.60;57.40
70184;DHT22;57554;51.546;6.776;2023-07-13T08:42:42;20.60;57.40
70184;DHT22;57554;51.546;6.776;2023-07-13T08:45:19;20.70;58.10
70184;DHT22;57554;51.546;6.776;2023-07-13T08:47:54;21.10;57.70
70184;DHT22;57554;51.546;6.776;2023-07-13T08:50:25;21.40;56.80
70184;DHT22;57554;51.546;6.776;2023-07-13T08:52:55;21.70;56.50
70184;DHT22;57554;51.546;6.776;2023-07-13T08:55:26;21.80;55.40
70184;DHT22;57554;51.546;6.776;2023-07-13T08:58:00;21.80;55.20
70184;DHT22;57554;51.546;6.776;2023-07-13T09:03:23;21.90;55.10
70184;DHT22;57554;51.546;6.776;2023-07-13T09:05:57;22.00;54.60
70184;DHT22;57554;51.546;6.776;2023-07-13T09:08:58;21.90;54.90
70184;DHT22;57554;51.546;6.776;2023-07-13T09:11:52;21.90;54.60
70184;DHT22;57554;51.546;6.776;2023-07-13T09:17:19;21.70;54.60
70184;DHT22;57554;51.546;6.776;2023-07-13T09:19:56;21.60;54.80
70184;DHT22;57554;51.546;6.776;2023-07-13T09:22:24;21.40;55.00
70184;DHT22;57554;51.546;6.776;2023-07-13T09:25:04;21.30;55.30
70184;DHT22;57554;51.546;6.776;2023-07-13T09:27:38;21.20;56.00
70184;DHT22;57554;51.546;6.776;2023-07-13T09:30:21;21.30;56.50
70184;DHT22;57554;51.546;6.776;2023-07-13T09:32:52;21.50;56.20
70184;DHT22;57554;51.546;6.776;2023-07-13T09:35:25;21.70;55.40
70184;DHT22;57554;51.546;6.776;2023-07-13T09:37:58;21.70;54.60
70184;DHT22;57554;51.546;6.776;2023-07-13T09:40:56;21.70;54.90
70184;DHT22;57554;51.546;6.776;2023-07-13T09:43:25;21.70;55.00
70184;DHT22;57554;51.546;6.776;2023-07-13T09:45:50;21.80;54.70
70184;DHT22;57554;51.546;6.776;2023-07-13T09:48:17;21.80;54.30
70184;DHT22;57554;51.546;6.776;2023-07-13T09:50:44;22.00;54.20
70184;DHT22;57554;51.546;6.776;2023-07-13T09:53:19;22.20;54.20
70184;DHT22;57554;51.546;6.776;2023-07-13T09:55:46;22.60;53.40
70184;DHT22;57554;51.546;6.776;2023-07-13T09:58:21;22.90;53.20
70184;DHT22;57554;51.546;6.776;2023-07-13T10:01:04;23.20;52.40
70184;DHT22;57554;51.546;6.776;2023-07-13T10:03:32;23.40;51.30
70184;DHT22;57554;51.546;6.776;2023-07-13T10:06:17;23.40;51.20
70184;DHT22;57554;51.546;6.776;2023-07-13T10:08:44;23.40;50.60
70184;DHT22;57554;51.546;6.776;2023-07-13T10:11:18;23.50;50.60
70184;DHT22;57554;51.546;6.776;2023-07-13T10:13:57;23.50;49.60
70184;DHT22;57554;51.546;6.776;2023-07-13T10:16:27;23.40;50.10
70184;DHT22;57554;51.546;6.776;2023-07-13T10:18:59;23.60;50.50
70184;DHT22;57554;51.546;6.776;2023-07-13T10:21:35;23.90;49.30
70184;DHT22;57554;51.546;6.776;2023-07-13T10:24:17;23.90;48.60
70184;DHT22;57554;51.546;6.776;2023-07-13T10:27:13;23.70;48.90
70184;DHT22;57554;51.546;6.776;2023-07-13T10:29:52;23.50;49.60
70184;DHT22;57554;51.546;6.776;2023-07-13T10:32:21;23.60;50.10
70184;DHT22;57554;51.546;6.776;2023-07-13T10:34:49;23.70;49.60
70184;DHT22;57554;51.546;6.776;2023-07-13T10:37:22;23.90;49.40
70184;DHT22;57554;51.546;6.776;2023-07-13T10:39:51;24.10;48.60
70184;DHT22;57554;51.546;6.776;2023-07-13T10:42:29;24.10;48.10
70184;DHT22;57554;51.546;6.776;2023-07-13T10:44:56;24.00;47.30
70184;DHT22;57554;51.546;6.776;2023-07-13T10:47:22;23.90;48.00
70184;DHT22;57554;51.546;6.776;2023-07-13T10:49:52;24.00;47.70
70184;DHT22;57554;51.546;6.776;2023-07-13T10:55:54;24.00;46.50
70184;DHT22;57554;51.546;6.776;2023-07-13T11:03:28;24.40;45.70
70184;DHT22;57554;51.546;6.776;2023-07-13T11:11:33;24.70;46.50
70184;DHT22;57554;51.546;6.776;2023-07-13T11:14:01;25.00;44.90
70184;DHT22;57554;51.546;6.776;2023-07-13T11:16:44;25.20;44.20
70184;DHT22;57554;51.546;6.776;2023-07-13T11:24:56;25.30;42.60
70184;DHT22;57554;51.546;6.776;2023-07-13T11:27:41;25.30;42.40
70184;DHT22;57554;51.546;6.776;2023-07-13T11:30:08;25.50;41.70
70184;DHT22;57554;51.546;6.776;2023-07-13T11:32:36;25.50;41.60
70184;DHT22;57554;51.546;6.776;2023-07-13T11:35:02;25.40;41.90
70184;DHT22;57554;51.546;6.776;2023-07-13T11:37:28;25.30;41.90
70184;DHT22;57554;51.546;6.776;2023-07-13T11:39:55;25.20;41.70
70184;DHT22;57554;51.546;6.776;2023-07-13T11:42:21;25.10;41.70
70184;DHT22;57554;51.546;6.776;2023-07-13T11:44:49;25.20;41.80
70184;DHT22;57554;51.546;6.776;2023-07-13T11:47:20;25.30;42.00
70184;DHT22;57554;51.546;6.776;2023-07-13T11:49:54;25.20;42.40
70184;DHT22;57554;51.546;6.776;2023-07-13T11:52:24;25.10;42.60
70184;DHT22;57554;51.546;6.776;2023-07-13T11:54:54;24.90;42.30
70184;DHT22;57554;51.546;6.776;2023-07-13T11:57:32;24.60;42.80
70184;DHT22;57554;51.546;6.776;2023-07-13T12:00:02;24.60;44.30
70184;DHT22;57554;51.546;6.776;2023-07-13T12:02:45;24.90;44.50
70184;DHT22;57554;51.546;6.776;2023-07-13T12:05:14;25.30;42.50
70184;DHT22;57554;51.546;6.776;2023-07-13T12:07:40;25.60;41.50
70184;DHT22;57554;51.546;6.776;2023-07-13T12:12:35;25.60;39.60
70184;DHT22;57554;51.546;6.776;2023-07-13T12:15:08;25.40;40.20
70184;DHT22;57554;51.546;6.776;2023-07-13T12:17:35;25.10;40.90
70184;DHT22;57554;51.546;6.776;2023-07-13T12:20:12;24.90;41.50
70184;DHT22;57554;51.546;6.776;2023-07-13T12:22:49;24.80;42.20
70184;DHT22;57554;51.546;6.776;2023-07-13T12:25:15;24.80;42.30
70184;DHT22;57554;51.546;6.776;2023-07-13T12:27:41;24.90;42.90
70184;DHT22;57554;51.546;6.776;2023-07-13T12:33:21;25.50;41.90
70184;DHT22;57554;51.546;6.776;2023-07-13T12:35:51;25.40;40.90
70184;DHT22;57554;51.546;6.776;2023-07-13T12:38:18;25.20;40.80
70184;DHT22;57554;51.546;6.776;2023-07-13T12:40:49;25.00;40.90
70184;DHT22;57554;51.546;6.776;2023-07-13T12:43:15;24.80;41.20
70184;DHT22;57554;51.546;6.776;2023-07-13T12:46:03;24.50;41.70
70184;DHT22;57554;51.546;6.776;2023-07-13T12:48:30;24.20;42.10
70184;DHT22;57554;51.546;6.776;2023-07-13T12:50:55;23.80;42.70
70184;DHT22;57554;51.546;6.776;2023-07-13T12:53:29;23.50;44.60
70184;DHT22;57554;51.546;6.776;2023-07-13T12:55:58;23.10;46.70
70184;DHT22;57554;51.546;6.776;2023-07-13T12:58:32;22.70;49.30
70184;DHT22;57554;51.546;6.776;2023-07-13T13:00:59;22.30;50.10
70184;DHT22;57554;51.546;6.776;2023-07-13T13:03:33;22.00;50.00
70184;DHT22;57554;51.546;6.776;2023-07-13T13:06:00;22.00;51.20
70184;DHT22;57554;51.546;6.776;2023-07-13T13:08:29;22.00;51.90
70184;DHT22;57554;51.546;6.776;2023-07-13T13:10:54;22.10;52.20
70184;DHT22;57554;51.546;6.776;2023-07-13T13:13:20;22.20;52.60
70184;DHT22;57554;51.546;6.776;2023-07-13T13:15:45;22.30;52.90
70184;DHT22;57554;51.546;6.776;2023-07-13T13:18:19;22.40;53.10
70184;DHT22;57554;51.546;6.776;2023-07-13T13:20:46;22.50;53.30
70184;DHT22;57554;51.546;6.776;2023-07-13T13:23:17;22.70;52.80
70184;DHT22;57554;51.546;6.776;2023-07-13T13:25:43;22.80;52.90
70184;DHT22;57554;51.546;6.776;2023-07-13T13:28:20;23.00;52.50
70184;DHT22;57554;51.546;6.776;2023-07-13T13:30:47;23.20;52.80
70184;DHT22;57554;51.546;6.776;2023-07-13T13:33:18;23.40;52.40
70184;DHT22;57554;51.546;6.776;2023-07-13T13:35:44;23.60;52.60
70184;DHT22;57554;51.546;6.776;2023-07-13T13:38:14;23.80;52.10
70184;DHT22;57554;51.546;6.776;2023-07-13T13:40:41;24.00;51.90
70184;DHT22;57554;51.546;6.776;2023-07-13T13:43:15;24.00;51.50
70184;DHT22;57554;51.546;6.776;2023-07-13T13:45:42;24.10;51.40
70184;DHT22;57554;51.546;6.776;2023-07-13T13:48:17;24.20;51.10
70184;DHT22;57554;51.546;6.776;2023-07-13T13:50:43;24.20;51.30
70184;DHT22;57554;51.546;6.776;2023-07-13T13:53:13;24.20;51.30
70184;DHT22;57554;51.546;6.776;2023-07-13T13:55:39;24.10;51.40
70184;DHT22;57554;51.546;6.776;2023-07-13T13:58:05;24.00;51.50
70184;DHT22;57554;51.546;6.776;2023-07-13T14:00:31;23.80;51.90
70184;DHT22;57554;51.546;6.776;2023-07-13T14:02:57;23.80;52.50
70184;DHT22;57554;51.546;6.776;2023-07-13T14:05:24;23.60;52.60
70184;DHT22;57554;51.546;6.776;2023-07-13T14:07:53;23.50;52.90
70184;DHT22;57554;51.546;6.776;2023-07-13T14:10:20;23.30;53.50
70184;DHT22;57554;51.546;6.776;2023-07-13T14:12:48;23.30;53.60
70184;DHT22;57554;51.546;6.776;2023-07-13T14:15:23;23.30;54.00
70184;DHT22;57554;51.546;6.776;2023-07-13T14:17:49;23.30;54.40
70184;DHT22;57554;51.546;6.776;2023-07-13T14:20:16;23.30;54.10
70184;DHT22;57554;51.546;6.776;2023-07-13T14:22:42;23.30;53.90
70184;DHT22;57554;51.546;6.776;2023-07-13T14:25:13;23.30;54.50
70184;DHT22;57554;51.546;6.776;2023-07-13T14:27:40;23.20;54.30
70184;DHT22;57554;51.546;6.776;2023-07-13T14:30:25;23.20;53.40
70184;DHT22;57554;51.546;6.776;2023-07-13T14:32:51;23.20;53.50
70184;DHT22;57554;51.546;6.776;2023-07-13T14:35:19;23.20;52.90
70184;DHT22;57554;51.546;6.776;2023-07-13T14:37:46;23.40;52.40
70184;DHT22;57554;51.546;6.776;2023-07-13T14:40:16;23.60;51.60
70184;DHT22;57554;51.546;6.776;2023-07-13T14:42:42;23.90;51.00
70184;DHT22;57554;51.546;6.776;2023-07-13T14:45:16;24.10;49.80
70184;DHT22;57554;51.546;6.776;2023-07-13T14:47:43;24.30;48.10
70184;DHT22;57554;51.546;6.776;2023-07-13T14:50:30;24.40;47.10
70184;DHT22;57554;51.546;6.776;2023-07-13T14:52:55;24.40;46.30
70184;DHT22;57554;51.546;6.776;2023-07-13T14:55:21;24.20;46.40
70184;DHT22;57554;51.546;6.776;2023-07-13T14:57:48;24.10;45.90
70184;DHT22;57554;51.546;6.776;2023-07-13T15:00:18;23.90;45.90
70184;DHT22;57554;51.546;6.776;2023-07-13T15:02:52;23.80;45.80
70184;DHT22;57554;51.546;6.776;2023-07-13T15:05:21;23.60;46.20
70184;DHT22;57554;51.546;6.776;2023-07-13T15:07:52;23.50;47.30
70184;DHT22;57554;51.546;6.776;2023-07-13T15:10:19;23.50;47.80
70184;DHT22;57554;51.546;6.776;2023-07-13T15:12:45;23.40;48.00
70184;DHT22;57554;51.546;6.776;2023-07-13T15:15:12;23.40;48.40
70184;DHT22;57554;51.546;6.776;2023-07-13T15:17:41;23.30;48.30
70184;DHT22;57554;51.546;6.776;2023-07-13T15:22:46;23.00;49.10
70184;DHT22;57554;51.546;6.776;2023-07-13T15:25:19;22.90;49.60
70184;DHT22;57554;51.546;6.776;2023-07-13T15:27:46;22.70;50.20
70184;DHT22;57554;51.546;6.776;2023-07-13T15:30:12;22.60;50.60
70184;DHT22;57554;51.546;6.776;2023-07-13T15:32:38;22.50;51.10
70184;DHT22;57554;51.546;6.776;2023-07-13T15:35:05;22.40;51.50
70184;DHT22;57554;51.546;6.776;2023-07-13T15:37:30;22.40;51.50
70184;DHT22;57554;51.546;6.776;2023-07-13T15:39:56;22.30;51.70
70184;DHT22;57554;51.546;6.776;2023-07-13T15:42:23;22.30;51.70
70184;DHT22;57554;51.546;6.776;2023-07-13T15:44:49;22.30;51.80
70184;DHT22;57554;51.546;6.776;2023-07-13T15:47:15;22.30;51.50
70184;DHT22;57554;51.546;6.776;2023-07-13T15:49:41;22.40;51.80
70184;DHT22;57554;51.546;6.776;2023-07-13T15:52:19;22.30;52.20
70184;DHT22;57554;51.546;6.776;2023-07-13T15:54:46;22.30;52.50
70184;DHT22;57554;51.546;6.776;2023-07-13T15:57:12;22.10;52.60
70184;DHT22;57554;51.546;6.776;2023-07-13T15:59:39;22.00;52.60
70184;DHT22;57554;51.546;6.776;2023-07-13T16:02:18;22.00;52.80
70184;DHT22;57554;51.546;6.776;2023-07-13T16:04:45;22.00;51.50
70184;DHT22;57554;51.546;6.776;2023-07-13T16:07:13;22.10;50.70
70184;DHT22;57554;51.546;6.776;2023-07-13T16:09:39;22.10;49.90
70184;DHT22;57554;51.546;6.776;2023-07-13T16:12:13;22.10;50.30